Time;durP1;ratioP1;P1;durP2;ratioP2;P2;SDS_P1;SDS_P2;PMS_P1;PMS_P2;Temp;Humidity;BMP_temperature;BMP_pressure;BME280_temperature;BME280_humidity;BME280_pressure;Samples;Min_cycle;Max_cycle;Signal;HPM_P1;HPM_P2
2022/03/06 00:00:08;;;;;;;;;5.25;5.25;;;;;16.09;43.33;102518.81;5032139;28;8799;-74
2022/03/06 00:02:35;;;;;;;;;8.00;7.00;;;;;16.09;43.22;102510.00;5029875;28;8791;-73
2022/03/06 00:05:00;;;;;;;;;6.75;6.50;;;;;16.08;43.23;102508.25;5031390;28;10060;-73
2022/03/06 00:07:25;;;;;;;;;6.75;6.00;;;;;16.09;43.10;102512.63;5031729;28;9982;-73
2022/03/06 00:09:51;;;;;;;;;6.75;6.75;;;;;16.06;43.16;102523.09;5031960;28;9620;-74
2022/03/06 00:12:17;;;;;;;;;7.50;7.00;;;;;16.08;43.28;102527.59;5031342;28;8945;-73
2022/03/06 00:14:42;;;;;;;;;7.75;7.75;;;;;16.07;42.92;102528.44;5021968;28;8794;-73
2022/03/06 00:17:07;;;;;;;;;7.00;7.00;;;;;16.06;42.72;102523.09;5011729;28;10044;-74
2022/03/06 00:19:33;;;;;;;;;6.75;6.75;;;;;16.07;42.90;102527.53;5011183;28;9572;-74
2022/03/06 00:22:01;;;;;;;;;9.00;6.50;;;;;16.06;43.08;102520.47;5011728;28;8860;-73
2022/03/06 00:24:26;;;;;;;;;9.50;7.50;;;;;16.06;42.79;102523.09;5026977;28;8814;-72
2022/03/06 00:26:52;;;;;;;;;8.00;6.00;;;;;16.04;42.96;102524.81;5031028;28;10019;-73
2022/03/06 00:29:17;;;;;;;;;3.75;3.75;;;;;16.06;42.90;102515.19;5031478;28;8991;-73
2022/03/06 00:31:42;;;;;;;;;7.00;5.50;;;;;16.04;42.74;102530.09;5032669;28;8801;-72
2022/03/06 00:34:08;;;;;;;;;8.00;7.00;;;;;16.05;42.53;102531.84;5043528;28;8838;-72
2022/03/06 00:36:33;;;;;;;;;7.00;5.75;;;;;16.06;42.53;102528.38;5021178;28;8899;-74
2022/03/06 00:38:58;;;;;;;;;6.75;6.75;;;;;16.02;42.69;102529.13;5011378;28;8811;-75
2022/03/06 00:41:24;;;;;;;;;6.50;4.50;;;;;16.01;42.61;102527.38;5011526;28;8801;-73
2022/03/06 00:43:50;;;;;;;;;6.50;6.50;;;;;15.98;42.87;102530.81;5021815;28;8925;-73
2022/03/06 00:46:15;;;;;;;;;6.50;6.25;;;;;16.01;42.63;102532.66;5030473;28;8805;-73
2022/03/06 00:48:40;;;;;;;;;7.75;7.00;;;;;15.98;42.35;102530.81;5030747;28;8798;-72
2022/03/06 00:51:08;;;;;;;;;7.00;7.00;;;;;15.99;42.44;102529.06;5030892;28;8803;-73
2022/03/06 00:53:33;;;;;;;;;5.00;4.25;;;;;16.01;42.61;102535.28;5030061;28;8801;-74
2022/03/06 00:56:02;;;;;;;;;5.00;5.00;;;;;15.99;42.63;102542.25;5031026;28;10075;-74
2022/03/06 00:58:27;;;;;;;;;5.50;5.50;;;;;15.98;42.40;102541.34;5030950;28;8929;-75
2022/03/06 01:00:53;;;;;;;;;8.25;8.25;;;;;16.02;42.42;102547.59;5030244;28;10017;-74
2022/03/06 01:03:20;;;;;;;;;4.50;4.50;;;;;16.01;42.36;102554.59;5030900;28;8783;-73
2022/03/06 01:05:46;;;;;;;;;3.75;3.00;;;;;15.98;42.66;102557.16;5030559;28;8807;-72
2022/03/06 01:08:12;;;;;;;;;7.75;3.25;;;;;15.98;42.57;102550.97;5030238;28;10193;-73
2022/03/06 01:10:39;;;;;;;;;7.00;4.25;;;;;15.97;42.35;102557.13;5022292;28;10076;-73
2022/03/06 01:13:07;;;;;;;;;5.00;5.00;;;;;15.97;42.64;102557.13;5028438;28;8841;-72
2022/03/06 01:15:32;;;;;;;;;6.75;6.25;;;;;15.95;42.58;102557.06;5024099;28;10141;-73
2022/03/06 01:17:58;;;;;;;;;7.00;7.00;;;;;15.95;42.59;102557.06;5024233;28;10118;-73
2022/03/06 01:20:24;;;;;;;;;5.25;5.25;;;;;15.92;42.46;102559.63;5011171;28;8808;-73
2022/03/06 01:22:50;;;;;;;;;7.75;7.50;;;;;15.95;42.18;102563.25;5021545;28;8805;-73
2022/03/06 01:25:15;;;;;;;;;4.25;4.25;;;;;15.95;42.47;102564.97;5024707;28;10062;-74
2022/03/06 01:27:41;;;;;;;;;5.50;5.50;;;;;15.94;42.13;102568.44;5027628;28;8810;-72
2022/03/06 01:30:09;;;;;;;;;3.00;3.00;;;;;15.95;42.14;102571.13;5030350;28;8783;-73
2022/03/06 01:32:35;;;;;;;;;4.00;3.50;;;;;15.94;42.17;102571.97;5030553;28;8890;-74
2022/03/06 01:35:00;;;;;;;;;6.00;6.00;;;;;15.94;42.19;102576.34;5030206;28;10180;-73
2022/03/06 01:37:26;;;;;;;;;5.00;5.00;;;;;15.92;42.17;102576.34;5029819;28;8841;-73
2022/03/06 01:39:51;;;;;;;;;4.00;3.25;;;;;15.89;42.29;102576.25;5030560;28;8790;-75
2022/03/06 01:42:18;;;;;;;;;6.75;5.75;;;;;15.91;42.43;102577.19;5030533;28;8787;-74
2022/03/06 01:44:50;;;;;;;;;6.00;6.00;;;;;15.94;41.89;102579.00;5016073;28;8824;-73
2022/03/06 01:47:33;;;;;;;;;11.00;9.00;;;;;15.92;42.06;102578.97;5014717;28;10073;-73
2022/03/06 01:49:59;;;;;;;;;6.75;6.25;;;;;15.89;42.01;102578.88;5013892;28;10069;-74
2022/03/06 01:52:24;;;;;;;;;4.50;3.75;;;;;15.94;42.13;102581.63;5021798;28;10076;-74
2022/03/06 01:54:49;;;;;;;;;8.00;7.00;;;;;15.92;41.86;102580.72;5030569;28;8857;-73
2022/03/06 01:57:15;;;;;;;;;4.50;4.00;;;;;15.90;41.92;102583.28;5015374;28;8924;-73
2022/03/06 01:59:40;;;;;;;;;5.50;4.00;;;;;15.89;42.09;102580.63;5017016;28;9640;-74
2022/03/06 02:02:05;;;;;;;;;4.75;4.75;;;;;15.90;41.75;102580.66;5034582;28;8822;-74
2022/03/06 02:04:31;;;;;;;;;4.50;4.50;;;;;15.91;41.97;102586.81;5033479;28;8814;-73
2022/03/06 02:06:56;;;;;;;;;7.25;4.25;;;;;15.89;41.93;102591.16;5034120;28;9537;-74
2022/03/06 02:09:21;;;;;;;;;3.25;3.25;;;;;15.91;41.58;102586.81;5021728;28;8817;-73
2022/03/06 02:12:18;;;;;;;;;3.50;3.50;;;;;15.90;41.69;102590.28;5023651;28;8808;-72
2022/03/06 02:14:32;;;;;;;;;5.00;3.00;;;;;15.88;41.64;102587.63;5035363;28;8842;-74
2022/03/06 02:16:57;;;;;;;;;5.00;4.00;;;;;15.88;41.91;102587.63;5034456;28;9991;-73
2022/03/06 02:19:22;;;;;;;;;4.00;4.00;;;;;15.88;41.65;102587.63;5033827;28;8803;-74
2022/03/06 02:21:48;;;;;;;;;3.00;3.00;;;;;15.85;41.79;102584.03;5033554;28;8795;-73
2022/03/06 02:24:13;;;;;;;;;7.75;7.75;;;;;15.87;41.70;102591.09;5033604;28;8902;-74
2022/03/06 02:26:41;;;;;;;;;6.50;5.00;;;;;15.87;41.57;102587.56;5018981;28;8806;-74
2022/03/06 02:29:06;;;;;;;;;3.50;3.50;;;;;15.86;41.68;102581.41;5013956;28;8813;-74
2022/03/06 02:31:32;;;;;;;;;6.75;4.75;;;;;15.82;41.82;102576.03;5013508;28;10276;-74
2022/03/06 02:33:58;;;;;;;;;4.00;3.25;;;;;15.87;41.92;102579.69;5013539;28;8802;-73
2022/03/06 02:36:29;;;;;;;;;4.50;4.50;;;;;15.89;41.52;102585.91;5013602;28;11644;-73
2022/03/06 02:38:54;;;;;;;;;5.25;5.25;;;;;15.88;41.72;102587.63;5013000;28;8789;-73
2022/03/06 02:41:20;;;;;;;;;5.50;4.50;;;;;15.84;41.39;102580.50;5013636;28;10080;-74
2022/03/06 02:43:45;;;;;;;;;4.25;3.00;;;;;15.87;41.41;102588.47;5013478;28;8908;-74
2022/03/06 02:46:10;;;;;;;;;4.50;4.50;;;;;15.85;41.57;102584.03;5012607;28;8845;-74
2022/03/06 02:48:36;;;;;;;;;5.25;4.00;;;;;15.85;41.74;102582.28;5013216;28;8959;-74
2022/03/06 02:51:01;;;;;;;;;3.75;3.75;;;;;15.83;41.80;102583.97;5013578;28;8812;-72
2022/03/06 02:53:30;;;;;;;;;3.25;3.25;;;;;15.82;41.69;102582.19;5012702;28;8851;-73
2022/03/06 02:55:58;;;;;;;;;6.75;6.75;;;;;15.87;41.44;102590.22;5013140;28;8817;-74
2022/03/06 02:58:24;;;;;;;;;7.75;6.50;;;;;15.82;41.41;102581.31;5013532;28;10043;-74
2022/03/06 03:00:50;;;;;;;;;6.25;6.25;;;;;15.84;41.58;102591.03;5034979;28;10175;-73
2022/03/06 03:03:16;;;;;;;;;4.75;4.75;;;;;15.83;41.46;102577.81;5047650;28;8787;-73
2022/03/06 03:05:41;;;;;;;;;4.00;4.00;;;;;15.85;41.50;102581.38;5036639;28;10127;-72
2022/03/06 03:08:07;;;;;;;;;4.50;4.50;;;;;15.83;41.23;102583.06;5033015;28;8834;-74
2022/03/06 03:10:32;;;;;;;;;4.00;4.00;;;;;15.83;41.65;102590.97;5032743;28;8799;-74
2022/03/06 03:12:57;;;;;;;;;7.00;7.00;;;;;15.83;41.56;102591.88;5032933;28;8819;-74
2022/03/06 03:15:26;;;;;;;;;4.00;4.00;;;;;15.85;41.18;102605.09;5019167;28;8847;-74
2022/03/06 03:17:51;;;;;;;;;8.00;5.00;;;;;15.84;41.29;102609.47;5013185;28;8810;-72
2022/03/06 03:20:18;;;;;;;;;5.50;5.00;;;;;15.82;41.22;102607.66;5012693;28;10150;-73
2022/03/06 03:22:44;;;;;;;;;4.50;4.50;;;;;15.83;41.31;102606.78;5012337;28;8797;-74
2022/03/06 03:25:10;;;;;;;;;5.00;5.00;;;;;15.83;41.27;102612.94;5012730;28;10118;-74
2022/03/06 03:27:36;;;;;;;;;5.25;5.25;;;;;15.84;41.33;102608.56;5012769;28;10218;-73
2022/03/06 03:30:07;;;;;;;;;6.50;6.50;;;;;15.81;41.35;102606.75;5012565;28;11498;-74
2022/03/06 03:32:32;;;;;;;;;3.50;3.00;;;;;15.83;41.39;102602.41;5012581;28;10182;-73
2022/03/06 03:34:58;;;;;;;;;4.00;3.00;;;;;15.82;41.06;102610.28;5012456;28;10060;-74
2022/03/06 03:37:23;;;;;;;;;4.00;4.00;;;;;15.81;41.24;102611.13;5012618;28;8895;-73
2022/03/06 03:39:48;;;;;;;;;7.25;6.00;;;;;15.82;41.33;102610.28;5012209;28;9506;-74
2022/03/06 03:42:14;;;;;;;;;4.00;4.00;;;;;15.81;41.12;102611.13;5012214;28;9599;-74
2022/03/06 03:44:39;;;;;;;;;4.75;4.00;;;;;15.79;41.27;102610.16;5012395;28;8807;-75
2022/03/06 03:47:04;;;;;;;;;6.00;5.50;;;;;15.80;41.40;102609.31;5013627;28;8821;-75
2022/03/06 03:49:30;;;;;;;;;4.00;4.00;;;;;15.79;41.36;102616.34;5025366;28;8824;-74
2022/03/06 03:51:55;;;;;;;;;7.50;7.00;;;;;15.78;41.17;102614.53;5018558;28;8812;-73
2022/03/06 03:54:21;;;;;;;;;6.50;6.50;;;;;15.78;41.01;102617.16;5013415;28;8802;-74
2022/03/06 03:56:46;;;;;;;;;4.00;4.00;;;;;15.83;41.14;102622.56;5011666;28;8813;-73
2022/03/06 03:59:12;;;;;;;;;6.25;4.50;;;;;15.79;41.15;102618.97;5013615;28;8951;-73
2022/03/06 04:01:37;;;;;;;;;3.25;3.25;;;;;15.80;41.39;102620.75;5031618;28;8913;-74
2022/03/06 04:04:04;;;;;;;;;6.25;4.50;;;;;15.76;41.35;102610.97;5031395;28;9550;-73
2022/03/06 04:06:29;;;;;;;;;5.50;5.50;;;;;15.78;41.09;102616.31;5030897;28;8791;-74
2022/03/06 04:08:54;;;;;;;;;5.00;5.00;;;;;15.77;41.23;102615.41;5031433;28;10183;-73
2022/03/06 04:11:19;;;;;;;;;6.75;6.50;;;;;15.76;41.01;102613.63;5031514;28;8864;-73
2022/03/06 04:13:45;;;;;;;;;3.50;3.50;;;;;15.74;41.16;102607.44;5031621;28;8804;-74
2022/03/06 04:16:10;;;;;;;;;3.75;2.75;;;;;15.78;41.09;102613.69;5012013;28;8849;-75
2022/03/06 04:18:35;;;;;;;;;4.00;4.00;;;;;15.72;41.16;102609.09;5011234;28;8793;-73
2022/03/06 04:21:01;;;;;;;;;6.00;4.00;;;;;15.77;41.22;102611.88;5011932;28;8801;-73
2022/03/06 04:23:26;;;;;;;;;5.50;4.25;;;;;15.75;40.99;102605.66;5011406;28;8773;-73
2022/03/06 04:25:51;;;;;;;;;4.00;4.00;;;;;15.72;41.06;102602.94;5011594;28;8781;-74
2022/03/06 04:28:17;;;;;;;;;6.00;6.00;;;;;15.74;41.10;102612.69;5011535;28;8801;-73
2022/03/06 04:30:42;;;;;;;;;9.50;7.00;;;;;15.77;40.89;102615.41;5011131;28;8793;-74
2022/03/06 04:33:08;;;;;;;;;5.50;5.50;;;;;15.77;40.84;102623.31;5011631;28;8794;-74
2022/03/06 04:35:33;;;;;;;;;7.00;6.00;;;;;15.76;40.80;102620.63;5011244;28;8818;-74
2022/03/06 04:38:01;;;;;;;;;6.75;5.50;;;;;15.75;41.01;102626.72;5013081;28;8812;-73
2022/03/06 04:40:26;;;;;;;;;6.50;6.50;;;;;15.74;40.80;102625.88;5024618;28;8797;-73
2022/03/06 04:42:52;;;;;;;;;5.00;5.00;;;;;15.75;40.75;102629.34;5022426;28;10302;-74
2022/03/06 04:45:20;;;;;;;;;6.00;6.00;;;;;15.74;40.83;102630.22;5011439;28;8829;-73
2022/03/06 04:47:45;;;;;;;;;5.00;5.00;;;;;15.72;40.90;102632.81;5011255;28;8793;-73
2022/03/06 04:50:10;;;;;;;;;5.50;3.75;;;;;15.72;40.98;102640.72;5011520;28;10273;-74
2022/03/06 04:52:57;;;;;;;;;6.25;6.25;;;;;15.71;40.77;102635.41;5010621;28;9664;-74
2022/03/06 04:55:21;;;;;;;;;4.00;4.00;;;;;15.72;40.71;102643.34;5010672;28;8931;-74
2022/03/06 04:57:47;;;;;;;;;6.00;6.00;;;;;15.74;40.62;102651.31;5010742;28;10173;-74
2022/03/06 05:00:15;;;;;;;;;5.25;4.75;;;;;15.71;40.67;102644.19;5020466;28;8818;-74
2022/03/06 05:02:41;;;;;;;;;6.00;6.00;;;;;15.71;40.64;102662.63;5030437;28;8881;-74
2022/03/06 05:05:07;;;;;;;;;7.00;7.00;;;;;15.71;40.56;102662.63;5030934;28;10020;-73
2022/03/06 05:07:32;;;;;;;;;7.00;6.00;;;;;15.69;40.68;102663.44;5030112;28;8806;-74
2022/03/06 05:09:57;;;;;;;;;6.75;6.75;;;;;15.69;40.72;102663.44;5031174;28;8794;-74
2022/03/06 05:12:22;;;;;;;;;6.00;4.50;;;;;15.69;40.56;102664.31;5031196;28;8790;-74
2022/03/06 05:14:48;;;;;;;;;6.00;6.00;;;;;15.69;40.91;102658.16;5022025;28;8806;-74
2022/03/06 05:17:13;;;;;;;;;4.00;3.75;;;;;15.70;40.88;102666.13;5018921;28;8810;-74
2022/03/06 05:19:38;;;;;;;;;3.75;3.75;;;;;15.67;40.59;102662.50;5023898;28;8809;-75
2022/03/06 05:22:04;;;;;;;;;6.00;6.00;;;;;15.69;40.67;102666.06;5014495;28;8801;-73
2022/03/06 05:24:29;;;;;;;;;5.50;5.50;;;;;15.68;40.36;102661.63;5012005;28;8789;-73
2022/03/06 05:26:54;;;;;;;;;5.00;5.00;;;;;15.65;40.61;102658.91;5031875;28;8786;-74
2022/03/06 05:29:20;;;;;;;;;7.00;7.00;;;;;15.66;40.62;102665.97;5043719;28;8814;-73
2022/03/06 05:31:48;;;;;;;;;3.50;3.50;;;;;15.65;40.80;102664.19;5041844;28;8811;-74
2022/03/06 05:34:14;;;;;;;;;4.00;4.00;;;;;15.64;40.40;102660.66;5020481;28;8845;-74
2022/03/06 05:36:39;;;;;;;;;6.00;4.00;;;;;15.66;40.57;102672.13;5010286;28;10239;-73
2022/03/06 05:39:07;;;;;;;;;6.50;6.50;;;;;15.64;40.67;102668.56;5010937;28;8793;-74
2022/03/06 05:41:32;;;;;;;;;8.25;4.00;;;;;15.66;40.53;102680.03;5010377;28;8801;-74
2022/03/06 05:43:58;;;;;;;;;6.00;4.50;;;;;15.65;40.80;102677.34;5010373;28;10330;-73
2022/03/06 05:46:23;;;;;;;;;4.00;4.00;;;;;15.64;40.50;102686.09;5010574;28;8824;-74
2022/03/06 05:48:48;;;;;;;;;6.25;4.00;;;;;15.60;40.46;102690.38;5009367;28;8827;-72
2022/03/06 05:51:14;;;;;;;;;3.25;2.75;;;;;15.61;40.46;102692.16;5020347;28;8862;-74
2022/03/06 05:53:39;;;;;;;;;3.75;3.75;;;;;15.58;40.56;102686.81;5029995;28;8795;-74
2022/03/06 05:56:05;;;;;;;;;6.00;4.00;;;;;15.61;40.55;102691.25;5029706;28;8868;-74
2022/03/06 05:58:31;;;;;;;;;6.75;6.25;;;;;15.61;40.20;102696.53;5028997;28;8830;-74
2022/03/06 06:00:59;;;;;;;;;6.50;6.50;;;;;15.62;40.39;102699.22;5012351;28;10069;-74
2022/03/06 06:03:25;;;;;;;;;7.50;4.75;;;;;15.60;40.56;102703.53;5029390;28;8794;-73
2022/03/06 06:05:50;;;;;;;;;6.00;6.00;;;;;15.60;40.45;102706.16;5023083;28;10081;-74
2022/03/06 06:08:15;;;;;;;;;7.00;6.00;;;;;15.55;40.62;102702.53;5010188;28;9447;-73
2022/03/06 06:10:41;;;;;;;;;6.25;5.50;;;;;15.60;40.29;102715.78;5009475;28;8786;-74
2022/03/06 06:13:08;;;;;;;;;4.00;3.25;;;;;15.61;40.48;102722.84;5010637;28;9062;-74
2022/03/06 06:15:33;;;;;;;;;3.50;3.50;;;;;15.61;40.47;102725.50;5011740;28;8821;-74
2022/03/06 06:18:02;;;;;;;;;3.00;3.00;;;;;15.59;40.46;102732.47;5018437;28;10126;-72
2022/03/06 06:20:30;;;;;;;;;2.00;2.00;;;;;15.59;40.29;102730.72;5023528;28;8801;-73
2022/03/06 06:22:55;;;;;;;;;3.50;3.50;;;;;15.60;40.38;102734.22;5010523;28;10033;-74
2022/03/06 06:25:20;;;;;;;;;4.00;4.00;;;;;15.58;40.36;102731.56;5009944;28;10172;-73
2022/03/06 06:27:46;;;;;;;;;3.75;3.75;;;;;15.57;40.41;102731.50;5010421;28;8863;-75
2022/03/06 06:30:11;;;;;;;;;4.00;4.00;;;;;15.58;40.26;102736.81;5011528;28;8785;-74
2022/03/06 06:32:36;;;;;;;;;3.75;3.00;;;;;15.57;40.50;102740.31;5029389;28;8794;-74
2022/03/06 06:35:05;;;;;;;;;4.00;4.00;;;;;15.50;40.29;102730.44;5033868;28;8829;-73
2022/03/06 06:37:30;;;;;;;;;7.00;5.25;;;;;15.56;40.21;102737.63;5033121;28;8807;-75
2022/03/06 06:39:55;;;;;;;;;4.00;4.00;;;;;15.57;40.27;102748.19;5028955;28;9990;-74
2022/03/06 06:42:26;;;;;;;;;3.50;3.50;;;;;15.56;40.20;102743.78;5027629;28;8826;-74
2022/03/06 06:44:52;;;;;;;;;4.00;4.00;;;;;15.55;40.27;102749.00;5015471;28;8801;-73
2022/03/06 06:47:17;;;;;;;;;7.00;3.75;;;;;15.56;40.30;102742.91;5015478;28;9903;-73
2022/03/06 06:49:46;;;;;;;;;3.00;3.00;;;;;15.57;40.16;102749.94;5033050;28;9031;-73
2022/03/06 06:52:14;;;;;;;;;6.75;3.75;;;;;15.55;40.03;102755.16;5032288;28;9988;-73
2022/03/06 06:54:40;;;;;;;;;3.50;3.50;;;;;15.54;40.25;102753.38;5033175;28;10052;-73
2022/03/06 06:57:08;;;;;;;;;3.00;3.00;;;;;15.52;40.03;102757.72;5020322;28;10069;-74
2022/03/06 06:59:33;;;;;;;;;7.25;5.00;;;;;15.56;40.06;102771.88;5012614;28;8879;-73
2022/03/06 07:02:00;;;;;;;;;5.25;5.00;;;;;15.54;40.29;102763.91;5013450;28;9970;-72
2022/03/06 07:04:28;;;;;;;;;3.75;3.75;;;;;15.57;40.48;102776.25;5013377;28;9553;-73
2022/03/06 07:06:54;;;;;;;;;3.00;3.00;;;;;15.59;40.48;102778.13;5024898;28;10040;-74
2022/03/06 07:09:22;;;;;;;;;3.00;3.00;;;;;15.57;40.83;102776.25;5026348;28;10110;-74
2022/03/06 07:11:47;;;;;;;;;3.25;3.25;;;;;15.58;40.64;102784.22;5013632;28;8793;-73
2022/03/06 07:14:12;;;;;;;;;2.00;2.00;;;;;15.59;40.67;102791.28;5022387;28;10142;-73
2022/03/06 07:16:43;;;;;;;;;2.00;2.00;;;;;15.58;40.56;102791.22;5012662;28;8835;-73
2022/03/06 07:19:08;;;;;;;;;3.50;3.50;;;;;15.61;40.60;102788.69;5012966;28;8785;-73
2022/03/06 07:21:33;;;;;;;;;3.00;3.00;;;;;15.58;40.48;102786.84;5023263;28;10062;-72
2022/03/06 07:24:01;;;;;;;;;3.50;3.50;;;;;15.67;40.52;102800.28;5026489;28;8794;-73
2022/03/06 07:26:27;;;;;;;;;3.00;3.00;;;;;15.70;40.49;102804.78;5012177;28;8801;-73
2022/03/06 07:28:52;;;;;;;;;2.75;2.75;;;;;15.67;40.13;102804.69;5023896;28;9983;-73
2022/03/06 07:31:17;;;;;;;;;3.00;3.00;;;;;15.66;40.28;102797.63;5032414;28;8798;-73
2022/03/06 07:33:42;;;;;;;;;3.00;3.00;;;;;15.70;40.19;102805.69;5031929;28;8871;-73
2022/03/06 07:36:08;;;;;;;;;5.50;4.00;;;;;15.74;40.27;102815.47;5030694;28;8815;-74
2022/03/06 07:38:33;;;;;;;;;4.00;4.00;;;;;15.72;40.34;102817.16;5012490;28;8825;-73
2022/03/06 07:40:58;;;;;;;;;3.00;3.00;;;;;15.72;40.46;102819.78;5011659;28;8782;-73
2022/03/06 07:43:23;;;;;;;;;3.00;3.00;;;;;15.73;40.17;102818.94;5011352;28;9501;-74
2022/03/06 07:45:49;;;;;;;;;2.00;2.00;;;;;15.73;40.06;102820.69;5012347;28;8852;-73
2022/03/06 07:48:14;;;;;;;;;4.00;3.00;;;;;15.75;40.40;102826.88;5011614;28;8820;-72
2022/03/06 07:50:40;;;;;;;;;2.25;2.25;;;;;15.78;40.02;102837.53;5012180;28;8943;-74
2022/03/06 07:53:06;;;;;;;;;2.00;1.75;;;;;15.78;40.03;102835.75;5012947;28;8812;-73
2022/03/06 07:55:32;;;;;;;;;1.75;1.75;;;;;15.78;40.07;102832.25;5032357;28;9903;-73
2022/03/06 07:57:57;;;;;;;;;2.00;2.00;;;;;15.81;40.06;102832.34;5035247;28;8810;-73
2022/03/06 08:00:23;;;;;;;;;2.00;2.00;;;;;15.78;40.09;102827.00;5032272;28;9999;-73
2022/03/06 08:02:48;;;;;;;;;2.25;2.25;;;;;15.80;40.04;102833.19;5031180;28;8811;-73
2022/03/06 08:05:14;;;;;;;;;1.25;1.25;;;;;15.77;40.02;102830.47;5032165;28;8815;-73
2022/03/06 08:07:42;;;;;;;;;3.00;3.00;;;;;15.80;40.08;102843.72;5031513;28;8791;-73
2022/03/06 08:10:08;;;;;;;;;2.75;2.00;;;;;15.80;40.12;102843.72;5031647;28;8884;-74
2022/03/06 08:12:34;;;;;;;;;3.00;2.00;;;;;15.78;40.11;102834.91;5031513;28;9975;-74
2022/03/06 08:14:59;;;;;;;;;1.50;1.50;;;;;15.81;39.86;102842.88;5021875;28;10711;-73
2022/03/06 08:17:28;;;;;;;;;1.00;1.00;;;;;15.80;40.09;102849.88;5010841;28;11505;-72
2022/03/06 08:19:53;;;;;;;;;2.00;2.00;;;;;15.79;39.94;102847.19;5012141;28;8798;-73
2022/03/06 08:22:21;;;;;;;;;1.00;1.00;;;;;15.78;40.24;102850.69;5011324;28;10088;-73
2022/03/06 08:24:46;;;;;;;;;2.50;2.50;;;;;15.81;39.96;102859.59;5010955;28;8805;-74
2022/03/06 08:27:11;;;;;;;;;2.00;2.00;;;;;15.83;40.01;102852.63;5011515;28;10175;-74
2022/03/06 08:29:36;;;;;;;;;1.75;1.75;;;;;15.84;40.01;102853.50;5030753;28;8832;-74
2022/03/06 08:32:05;;;;;;;;;2.00;2.00;;;;;15.79;40.14;102849.84;5030913;28;8813;-74
2022/03/06 08:34:30;;;;;;;;;2.00;2.00;;;;;15.88;41.16;102853.66;5031214;28;8795;-73
2022/03/06 08:36:56;;;;;;;;;2.50;1.75;;;;;15.88;40.25;102853.66;5029428;28;10100;-73
2022/03/06 08:39:21;;;;;;;;;1.00;1.00;;;;;15.94;40.68;102860.84;5030205;28;8782;-73
2022/03/06 08:41:47;;;;;;;;;2.00;2.00;;;;;15.96;41.11;102864.44;5031462;28;8902;-74
2022/03/06 08:44:12;;;;;;;;;2.00;2.00;;;;;15.98;40.88;102867.13;5041063;28;8876;-75
2022/03/06 08:46:37;;;;;;;;;1.50;1.50;;;;;15.98;40.63;102859.22;5046262;28;8920;-73
2022/03/06 08:49:03;;;;;;;;;1.75;1.00;;;;;16.01;40.69;102859.34;5035543;28;8811;-73
2022/03/06 08:51:28;;;;;;;;;1.00;1.00;;;;;15.98;40.48;102873.28;5028932;28;8810;-72
2022/03/06 08:53:54;;;;;;;;;2.00;2.00;;;;;16.00;40.69;102876.88;5030568;28;8797;-73
2022/03/06 08:56:19;;;;;;;;;1.25;1.00;;;;;16.05;40.51;102880.53;5030909;28;8826;-73
2022/03/06 08:58:47;;;;;;;;;2.00;2.00;;;;;16.06;40.36;102874.44;5029611;28;8888;-74
2022/03/06 09:01:12;;;;;;;;;1.00;1.00;;;;;16.04;40.55;102878.78;5029742;28;8826;-74
2022/03/06 09:03:37;;;;;;;;;0.75;0.50;;;;;16.02;40.49;102869.00;5030697;28;10085;-75
2022/03/06 09:06:06;;;;;;;;;1.75;1.25;;;;;16.06;40.27;102876.16;5030421;28;8856;-74
2022/03/06 09:08:31;;;;;;;;;1.75;1.75;;;;;16.07;40.42;102875.31;5030120;28;8806;-74
2022/03/06 09:10:56;;;;;;;;;1.25;1.00;;;;;16.09;40.36;102884.16;5028783;28;9899;-73
2022/03/06 09:13:22;;;;;;;;;1.00;1.00;;;;;16.07;40.40;102878.84;5030263;28;8801;-73
2022/03/06 09:15:50;;;;;;;;;1.00;1.00;;;;;16.08;40.29;102880.66;5014226;28;9630;-74
2022/03/06 09:18:15;;;;;;;;;1.75;1.75;;;;;16.10;40.18;102872.78;5022324;28;8786;-73
2022/03/06 09:20:43;;;;;;;;;1.00;1.00;;;;;16.14;40.10;102864.13;5028089;28;10722;-74
2022/03/06 09:23:09;;;;;;;;;2.00;1.00;;;;;16.17;40.31;102872.13;5028756;28;8818;-74
2022/03/06 09:25:38;;;;;;;;;1.00;1.00;;;;;16.20;40.06;102874.84;5021096;28;9817;-74
2022/03/06 09:28:04;;;;;;;;;2.75;2.75;;;;;16.15;39.97;102864.19;5026495;28;8810;-74
2022/03/06 09:30:30;;;;;;;;;1.00;1.00;;;;;16.17;40.08;102872.13;5028959;28;9879;-73
2022/03/06 09:32:58;;;;;;;;;1.00;1.00;;;;;16.20;39.99;102874.84;5016648;28;9992;-74
2022/03/06 09:35:24;;;;;;;;;2.00;2.00;;;;;16.23;39.89;102869.69;5026446;28;9894;-74
2022/03/06 09:37:49;;;;;;;;;1.00;1.00;;;;;16.25;39.68;102873.25;5028863;28;10095;-73
2022/03/06 09:40:15;;;;;;;;;0.00;0.00;;;;;16.24;39.70;102866.19;5029435;28;8840;-73
2022/03/06 09:42:41;;;;;;;;;1.25;1.25;;;;;16.22;39.84;102868.78;5029772;28;9557;-75
2022/03/06 09:45:11;;;;;;;;;1.75;1.75;;;;;16.25;40.00;102873.25;5030380;28;8906;-75
2022/03/06 09:47:38;;;;;;;;;0.75;0.75;;;;;16.24;39.99;102876.72;5029800;28;10055;-75
2022/03/06 09:50:05;;;;;;;;;2.00;1.00;;;;;16.22;39.89;102866.16;5028188;28;10108;-74
2022/03/06 09:52:31;;;;;;;;;0.00;0.00;;;;;16.25;39.93;102868.88;5029645;28;10158;-73
2022/03/06 09:54:56;;;;;;;;;0.50;0.50;;;;;16.26;39.85;102875.94;5029892;28;9769;-74
2022/03/06 09:57:22;;;;;;;;;1.00;1.00;;;;;16.25;39.63;102878.53;5030064;28;8892;-73
2022/03/06 09:59:50;;;;;;;;;1.00;1.00;;;;;16.25;39.78;102870.63;5028283;28;8837;-73
2022/03/06 10:02:16;;;;;;;;;1.25;1.25;;;;;16.29;39.84;102867.22;5030024;28;8805;-74
2022/03/06 10:04:41;;;;;;;;;1.00;1.00;;;;;16.28;39.63;102871.59;5030898;28;10623;-74
2022/03/06 10:07:12;;;;;;;;;1.00;1.00;;;;;16.28;40.01;102875.97;5033471;28;8782;-75
2022/03/06 10:09:48;;;;;;;;;1.00;1.00;;;;;16.29;39.90;102877.78;5031597;28;8871;-72
2022/03/06 10:12:29;;;;;;;;;0.75;0.75;;;;;16.26;39.85;102875.94;5034314;28;9977;-74
2022/03/06 10:14:57;;;;;;;;;1.00;1.00;;;;;16.29;39.88;102873.41;5033631;28;9868;-73
2022/03/06 10:17:25;;;;;;;;;0.00;0.00;;;;;16.25;39.91;102879.44;5033081;28;9826;-73
2022/03/06 10:19:55;;;;;;;;;0.00;0.00;;;;;16.27;39.92;102877.72;5032265;28;9874;-76
2022/03/06 10:22:23;;;;;;;;;0.00;0.00;;;;;16.29;39.71;102877.78;5037636;28;9620;-74
2022/03/06 10:25:17;;;;;;;;;0.00;0.00;;;;;16.31;39.82;102883.97;5048972;28;9849;-74
2022/03/06 10:27:49;;;;;;;;;0.25;0.25;;;;;16.31;39.85;102883.97;5039462;28;10559;-75
2022/03/06 10:30:21;;;;;;;;;1.00;1.00;;;;;16.33;39.92;102884.94;5031255;28;9947;-74
2022/03/06 10:32:47;;;;;;;;;1.00;1.00;;;;;16.34;39.83;102889.38;5013836;28;9820;-74
2022/03/06 10:35:12;;;;;;;;;0.75;0.75;;;;;16.36;39.66;102896.47;5014034;28;9868;-73
2022/03/06 10:37:38;;;;;;;;;0.50;0.00;;;;;16.30;43.02;102885.75;5017188;28;8829;-74
2022/03/06 10:40:07;;;;;;;;;1.00;1.00;;;;;16.45;43.68;102898.50;5013960;28;8805;-72
2022/03/06 10:42:33;;;;;;;;;2.75;0.00;;;;;16.55;44.17;102897.91;5013420;28;8798;-74
2022/03/06 10:44:58;;;;;;;;;1.00;1.00;;;;;16.58;43.94;102898.03;5013065;28;9709;-74
2022/03/06 10:47:24;;;;;;;;;2.25;1.25;;;;;16.67;47.08;102900.06;5013862;28;8812;-75
2022/03/06 10:50:41;;;;;;;;;2.00;1.00;;;;;16.75;50.42;102896.81;5013552;28;9553;-73
2022/03/06 10:53:23;;;;;;;;;4.00;2.00;;;;;16.79;49.51;102895.16;5001177;28;8833;-74
2022/03/06 10:55:50;;;;;;;;;3.00;2.00;;;;;16.82;50.07;102895.22;5013200;28;9842;-76
2022/03/06 10:58:17;;;;;;;;;2.00;2.00;;;;;16.89;56.19;102899.81;5012934;28;9790;-76
2022/03/06 11:00:44;;;;;;;;;2.25;2.25;;;;;16.62;53.93;102894.63;5013109;28;9944;-75
2022/03/06 11:03:13;;;;;;;;;2.00;2.00;;;;;16.58;50.33;102895.41;5013455;28;10054;-77
2022/03/06 11:05:46;;;;;;;;;4.75;4.75;;;;;16.62;48.27;102893.75;5011481;28;9823;-76
2022/03/06 11:08:15;;;;;;;;;4.00;2.00;;;;;16.62;47.00;102904.28;5013256;28;10153;-78
2022/03/06 11:10:42;;;;;;;;;5.00;4.00;;;;;16.62;45.28;102891.09;5011959;28;9846;-77
2022/03/06 11:13:11;;;;;;;;;2.75;2.75;;;;;16.65;44.81;102889.44;5015163;28;10043;-77
2022/03/06 11:15:36;;;;;;;;;3.50;3.50;;;;;16.08;44.78;102901.75;5032438;28;9975;-77
2022/03/06 11:18:02;;;;;;;;;3.00;2.25;;;;;15.76;44.55;102889.25;5034708;28;9900;-77
2022/03/06 11:20:29;;;;;;;;;5.50;5.50;;;;;15.53;43.14;102891.09;5033296;28;9535;-77
2022/03/06 11:23:07;;;;;;;;;4.00;3.50;;;;;15.42;42.41;102900.34;5034260;28;8864;-75
2022/03/06 11:25:38;;;;;;;;;4.00;3.00;;;;;15.41;41.94;102893.28;5028119;28;10114;-77
2022/03/06 11:28:30;;;;;;;;;4.00;4.00;;;;;15.72;40.80;102893.50;5023307;28;10889;-78